sensor_id;sensor_type;location;lat;lon;timestamp;P1;durP1;ratioP1;P2;durP2;ratioP2
72761;SDS011;60886;55.034;73.150;2023-05-10T00:00:54;36.50;;;17.13;;
72761;SDS011;60886;55.034;73.150;2023-05-10T00:04:01;30.67;;;16.25;;
72761;SDS011;60886;55.034;73.150;2023-05-10T00:18:22;33.50;;;17.42;;
72761;SDS011;60886;55.034;73.150;2023-05-10T00:21:24;39.08;;;18.05;;
72761;SDS011;60886;55.034;73.150;2023-05-10T00:24:25;32.53;;;17.08;;
72761;SDS011;60886;55.034;73.150;2023-05-10T00:27:27;34.70;;;17.53;;
72761;SDS011;60886;55.034;73.150;2023-05-10T00:30:28;35.88;;;17.83;;
72761;SDS011;60886;55.034;73.150;2023-05-10T00:33:29;35.23;;;17.03;;
72761;SDS011;60886;55.034;73.150;2023-05-10T00:36:31;36.75;;;17.27;;
72761;SDS011;60886;55.034;73.150;2023-05-10T00:39:32;40.35;;;18.13;;
72761;SDS011;60886;55.034;73.150;2023-05-10T00:42:34;37.75;;;17.98;;
72761;SDS011;60886;55.034;73.150;2023-05-10T00:45:35;35.38;;;16.95;;
72761;SDS011;60886;55.034;73.150;2023-05-10T00:48:38;35.47;;;17.63;;
72761;SDS011;60886;55.034;73.150;2023-05-10T00:51:39;35.65;;;18.33;;
72761;SDS011;60886;55.034;73.150;2023-05-10T00:54:43;38.80;;;18.67;;
72761;SDS011;60886;55.034;73.150;2023-05-10T00:57:45;33.50;;;18.25;;
72761;SDS011;60886;55.034;73.150;2023-05-10T01:00:46;36.20;;;19.02;;
72761;SDS011;60886;55.034;73.150;2023-05-10T01:03:49;37.17;;;20.10;;
72761;SDS011;60886;55.034;73.150;2023-05-10T01:06:51;38.80;;;20.38;;
72761;SDS011;60886;55.034;73.150;2023-05-10T01:09:57;35.70;;;19.93;;
72761;SDS011;60886;55.034;73.150;2023-05-10T01:12:59;37.20;;;19.07;;
72761;SDS011;60886;55.034;73.150;2023-05-10T01:16:01;40.45;;;19.50;;
72761;SDS011;60886;55.034;73.150;2023-05-10T01:19:04;35.97;;;19.90;;
72761;SDS011;60886;55.034;73.150;2023-05-10T01:29:11;35.73;;;20.33;;
72761;SDS011;60886;55.034;73.150;2023-05-10T01:32:35;37.30;;;20.80;;
72761;SDS011;60886;55.034;73.150;2023-05-10T01:35:55;35.75;;;20.42;;
72761;SDS011;60886;55.034;73.150;2023-05-10T01:39:09;36.60;;;19.93;;
72761;SDS011;60886;55.034;73.150;2023-05-10T01:42:26;37.15;;;22.20;;
72761;SDS011;60886;55.034;73.150;2023-05-10T01:45:39;35.95;;;21.65;;
72761;SDS011;60886;55.034;73.150;2023-05-10T01:48:50;36.63;;;21.30;;
72761;SDS011;60886;55.034;73.150;2023-05-10T01:51:56;35.49;;;21.79;;
72761;SDS011;60886;55.034;73.150;2023-05-10T01:55:05;34.42;;;20.80;;
72761;SDS011;60886;55.034;73.150;2023-05-10T01:58:10;34.97;;;20.50;;
72761;SDS011;60886;55.034;73.150;2023-05-10T02:01:14;38.57;;;21.07;;
72761;SDS011;60886;55.034;73.150;2023-05-10T02:04:18;34.93;;;20.43;;
72761;SDS011;60886;55.034;73.150;2023-05-10T02:07:22;34.75;;;20.13;;
72761;SDS011;60886;55.034;73.150;2023-05-10T02:10:25;33.40;;;20.77;;
72761;SDS011;60886;55.034;73.150;2023-05-10T02:13:27;34.33;;;20.88;;
72761;SDS011;60886;55.034;73.150;2023-05-10T02:16:33;33.90;;;19.47;;
72761;SDS011;60886;55.034;73.150;2023-05-10T02:19:38;34.67;;;20.55;;
72761;SDS011;60886;55.034;73.150;2023-05-10T02:22:42;32.55;;;20.38;;
72761;SDS011;60886;55.034;73.150;2023-05-10T02:25:45;37.37;;;20.83;;
72761;SDS011;60886;55.034;73.150;2023-05-10T02:28:50;32.05;;;19.73;;
72761;SDS011;60886;55.034;73.150;2023-05-10T02:31:54;32.48;;;19.08;;
72761;SDS011;60886;55.034;73.150;2023-05-10T02:34:56;32.77;;;20.30;;
72761;SDS011;60886;55.034;73.150;2023-05-10T02:37:59;35.33;;;20.27;;
72761;SDS011;60886;55.034;73.150;2023-05-10T02:41:06;33.53;;;19.92;;
72761;SDS011;60886;55.034;73.150;2023-05-10T02:44:09;34.60;;;20.13;;
72761;SDS011;60886;55.034;73.150;2023-05-10T02:47:12;33.45;;;19.35;;
72761;SDS011;60886;55.034;73.150;2023-05-10T02:50:14;31.75;;;19.67;;
72761;SDS011;60886;55.034;73.150;2023-05-10T02:53:15;33.03;;;20.10;;
72761;SDS011;60886;55.034;73.150;2023-05-10T02:56:26;31.65;;;19.77;;
72761;SDS011;60886;55.034;73.150;2023-05-10T02:59:32;31.77;;;19.65;;
72761;SDS011;60886;55.034;73.150;2023-05-10T03:02:34;33.50;;;19.57;;
72761;SDS011;60886;55.034;73.150;2023-05-10T03:05:37;34.75;;;19.30;;
72761;SDS011;60886;55.034;73.150;2023-05-10T03:08:38;34.43;;;19.53;;
72761;SDS011;60886;55.034;73.150;2023-05-10T03:11:58;31.64;;;18.73;;
72761;SDS011;60886;55.034;73.150;2023-05-10T03:18:48;32.53;;;18.45;;
72761;SDS011;60886;55.034;73.150;2023-05-10T03:21:56;32.90;;;18.17;;
72761;SDS011;60886;55.034;73.150;2023-05-10T03:25:06;29.85;;;18.08;;
72761;SDS011;60886;55.034;73.150;2023-05-10T03:28:10;32.97;;;18.27;;
72761;SDS011;60886;55.034;73.150;2023-05-10T03:31:13;29.15;;;17.75;;
72761;SDS011;60886;55.034;73.150;2023-05-10T03:34:16;32.67;;;18.63;;
72761;SDS011;60886;55.034;73.150;2023-05-10T03:37:18;27.17;;;16.88;;
72761;SDS011;60886;55.034;73.150;2023-05-10T03:40:20;29.63;;;17.30;;
72761;SDS011;60886;55.034;73.150;2023-05-10T03:43:21;29.57;;;16.27;;
72761;SDS011;60886;55.034;73.150;2023-05-10T03:46:23;29.88;;;17.65;;
72761;SDS011;60886;55.034;73.150;2023-05-10T03:49:24;30.50;;;18.05;;
72761;SDS011;60886;55.034;73.150;2023-05-10T03:52:26;28.20;;;16.63;;
72761;SDS011;60886;55.034;73.150;2023-05-10T03:55:27;29.77;;;17.05;;
72761;SDS011;60886;55.034;73.150;2023-05-10T03:58:29;29.00;;;17.17;;
72761;SDS011;60886;55.034;73.150;2023-05-10T04:01:30;31.13;;;17.17;;
72761;SDS011;60886;55.034;73.150;2023-05-10T04:04:32;31.33;;;17.58;;
72761;SDS011;60886;55.034;73.150;2023-05-10T04:07:33;31.70;;;18.25;;
72761;SDS011;60886;55.034;73.150;2023-05-10T04:10:35;28.77;;;17.37;;
72761;SDS011;60886;55.034;73.150;2023-05-10T04:13:36;29.10;;;17.20;;
72761;SDS011;60886;55.034;73.150;2023-05-10T04:16:38;30.88;;;17.20;;
72761;SDS011;60886;55.034;73.150;2023-05-10T04:19:40;31.13;;;18.43;;
72761;SDS011;60886;55.034;73.150;2023-05-10T04:22:41;29.88;;;17.27;;
72761;SDS011;60886;55.034;73.150;2023-05-10T04:25:42;30.73;;;17.60;;
72761;SDS011;60886;55.034;73.150;2023-05-10T04:28:44;27.13;;;17.23;;
72761;SDS011;60886;55.034;73.150;2023-05-10T04:31:50;30.83;;;18.55;;
72761;SDS011;60886;55.034;73.150;2023-05-10T04:34:52;31.80;;;16.97;;
72761;SDS011;60886;55.034;73.150;2023-05-10T04:37:54;31.73;;;17.42;;
72761;SDS011;60886;55.034;73.150;2023-05-10T04:41:03;28.53;;;16.40;;
72761;SDS011;60886;55.034;73.150;2023-05-10T04:44:06;28.45;;;16.65;;
72761;SDS011;60886;55.034;73.150;2023-05-10T04:47:07;28.50;;;16.27;;
72761;SDS011;60886;55.034;73.150;2023-05-10T04:50:09;27.07;;;16.40;;
72761;SDS011;60886;55.034;73.150;2023-05-10T04:53:10;26.92;;;15.45;;
72761;SDS011;60886;55.034;73.150;2023-05-10T04:56:12;27.83;;;16.00;;
72761;SDS011;60886;55.034;73.150;2023-05-10T04:59:13;24.10;;;15.10;;
72761;SDS011;60886;55.034;73.150;2023-05-10T05:02:15;26.98;;;15.85;;
72761;SDS011;60886;55.034;73.150;2023-05-10T05:05:16;26.48;;;14.93;;
72761;SDS011;60886;55.034;73.150;2023-05-10T05:08:18;27.67;;;15.40;;
72761;SDS011;60886;55.034;73.150;2023-05-10T05:11:19;24.75;;;14.73;;
72761;SDS011;60886;55.034;73.150;2023-05-10T05:14:21;28.37;;;14.20;;
72761;SDS011;60886;55.034;73.150;2023-05-10T05:17:23;28.47;;;14.77;;
72761;SDS011;60886;55.034;73.150;2023-05-10T05:20:24;23.95;;;13.93;;
72761;SDS011;60886;55.034;73.150;2023-05-10T05:23:26;25.40;;;15.02;;
72761;SDS011;60886;55.034;73.150;2023-05-10T05:26:27;23.33;;;14.68;;
72761;SDS011;60886;55.034;73.150;2023-05-10T05:29:29;24.00;;;14.83;;
72761;SDS011;60886;55.034;73.150;2023-05-10T05:32:31;24.80;;;14.55;;
72761;SDS011;60886;55.034;73.150;2023-05-10T05:35:32;26.55;;;14.77;;
72761;SDS011;60886;55.034;73.150;2023-05-10T05:38:34;23.60;;;13.97;;
72761;SDS011;60886;55.034;73.150;2023-05-10T05:41:35;22.88;;;12.55;;
72761;SDS011;60886;55.034;73.150;2023-05-10T05:44:37;19.87;;;12.83;;
72761;SDS011;60886;55.034;73.150;2023-05-10T05:47:39;23.52;;;13.63;;
72761;SDS011;60886;55.034;73.150;2023-05-10T05:50:40;19.58;;;11.65;;
72761;SDS011;60886;55.034;73.150;2023-05-10T05:53:42;21.17;;;12.07;;
72761;SDS011;60886;55.034;73.150;2023-05-10T05:56:50;20.73;;;12.38;;
72761;SDS011;60886;55.034;73.150;2023-05-10T05:59:51;21.07;;;13.23;;
72761;SDS011;60886;55.034;73.150;2023-05-10T06:02:53;25.38;;;13.55;;
72761;SDS011;60886;55.034;73.150;2023-05-10T06:05:54;23.45;;;12.43;;
72761;SDS011;60886;55.034;73.150;2023-05-10T06:08:55;21.40;;;12.17;;
72761;SDS011;60886;55.034;73.150;2023-05-10T06:11:57;20.38;;;11.85;;
72761;SDS011;60886;55.034;73.150;2023-05-10T06:14:58;18.65;;;10.45;;
72761;SDS011;60886;55.034;73.150;2023-05-10T06:18:00;25.30;;;12.17;;
72761;SDS011;60886;55.034;73.150;2023-05-10T06:21:01;22.02;;;11.57;;
72761;SDS011;60886;55.034;73.150;2023-05-10T06:24:02;21.17;;;10.70;;
72761;SDS011;60886;55.034;73.150;2023-05-10T06:27:05;21.20;;;10.48;;
72761;SDS011;60886;55.034;73.150;2023-05-10T06:30:07;22.60;;;11.20;;
72761;SDS011;60886;55.034;73.150;2023-05-10T06:33:09;21.65;;;10.77;;
72761;SDS011;60886;55.034;73.150;2023-05-10T06:36:10;19.17;;;10.43;;
72761;SDS011;60886;55.034;73.150;2023-05-10T06:39:12;21.30;;;10.95;;
72761;SDS011;60886;55.034;73.150;2023-05-10T06:42:14;26.33;;;12.05;;
72761;SDS011;60886;55.034;73.150;2023-05-10T06:45:20;25.98;;;12.50;;
72761;SDS011;60886;55.034;73.150;2023-05-10T06:48:21;25.30;;;12.10;;
72761;SDS011;60886;55.034;73.150;2023-05-10T06:51:24;28.30;;;12.67;;
72761;SDS011;60886;55.034;73.150;2023-05-10T06:54:25;30.98;;;12.77;;
72761;SDS011;60886;55.034;73.150;2023-05-10T06:57:27;28.38;;;13.75;;
72761;SDS011;60886;55.034;73.150;2023-05-10T07:00:28;24.08;;;12.85;;
72761;SDS011;60886;55.034;73.150;2023-05-10T07:03:30;26.57;;;12.60;;
72761;SDS011;60886;55.034;73.150;2023-05-10T07:06:32;26.75;;;12.43;;
72761;SDS011;60886;55.034;73.150;2023-05-10T07:09:34;25.63;;;13.17;;
72761;SDS011;60886;55.034;73.150;2023-05-10T07:12:35;26.08;;;12.75;;
72761;SDS011;60886;55.034;73.150;2023-05-10T07:15:38;26.53;;;13.20;;
72761;SDS011;60886;55.034;73.150;2023-05-10T07:18:48;25.70;;;13.32;;
72761;SDS011;60886;55.034;73.150;2023-05-10T07:21:51;27.42;;;13.25;;
72761;SDS011;60886;55.034;73.150;2023-05-10T07:24:52;27.98;;;12.88;;
72761;SDS011;60886;55.034;73.150;2023-05-10T07:27:54;26.17;;;12.02;;
72761;SDS011;60886;55.034;73.150;2023-05-10T07:30:55;24.65;;;13.35;;
72761;SDS011;60886;55.034;73.150;2023-05-10T07:33:57;23.67;;;12.38;;
72761;SDS011;60886;55.034;73.150;2023-05-10T07:36:58;25.50;;;12.70;;
72761;SDS011;60886;55.034;73.150;2023-05-10T07:40:00;24.50;;;13.25;;
72761;SDS011;60886;55.034;73.150;2023-05-10T07:43:01;25.60;;;13.05;;
72761;SDS011;60886;55.034;73.150;2023-05-10T07:46:03;23.60;;;13.48;;
72761;SDS011;60886;55.034;73.150;2023-05-10T07:49:05;24.75;;;13.88;;
72761;SDS011;60886;55.034;73.150;2023-05-10T07:52:07;24.80;;;13.00;;
72761;SDS011;60886;55.034;73.150;2023-05-10T07:55:09;22.10;;;13.25;;
72761;SDS011;60886;55.034;73.150;2023-05-10T07:58:10;23.47;;;13.23;;
72761;SDS011;60886;55.034;73.150;2023-05-10T08:01:12;24.08;;;13.15;;
72761;SDS011;60886;55.034;73.150;2023-05-10T08:04:13;22.33;;;13.18;;
72761;SDS011;60886;55.034;73.150;2023-05-10T08:07:14;25.33;;;13.43;;
72761;SDS011;60886;55.034;73.150;2023-05-10T08:10:16;21.67;;;13.13;;
72761;SDS011;60886;55.034;73.150;2023-05-10T08:13:18;24.95;;;12.40;;
72761;SDS011;60886;55.034;73.150;2023-05-10T08:16:19;19.05;;;12.55;;
72761;SDS011;60886;55.034;73.150;2023-05-10T08:19:21;22.55;;;13.10;;
72761;SDS011;60886;55.034;73.150;2023-05-10T08:22:23;21.95;;;13.13;;
72761;SDS011;60886;55.034;73.150;2023-05-10T08:25:24;21.58;;;13.02;;
72761;SDS011;60886;55.034;73.150;2023-05-10T08:28:26;23.53;;;13.37;;
72761;SDS011;60886;55.034;73.150;2023-05-10T08:31:28;27.60;;;13.07;;
72761;SDS011;60886;55.034;73.150;2023-05-10T08:34:30;24.42;;;13.45;;
72761;SDS011;60886;55.034;73.150;2023-05-10T08:37:32;22.42;;;13.10;;
72761;SDS011;60886;55.034;73.150;2023-05-10T08:40:41;22.98;;;13.68;;
72761;SDS011;60886;55.034;73.150;2023-05-10T08:43:43;22.38;;;13.55;;
72761;SDS011;60886;55.034;73.150;2023-05-10T08:46:50;23.88;;;13.80;;
72761;SDS011;60886;55.034;73.150;2023-05-10T08:49:54;20.40;;;12.57;;
72761;SDS011;60886;55.034;73.150;2023-05-10T08:52:56;22.50;;;13.10;;
72761;SDS011;60886;55.034;73.150;2023-05-10T08:56:01;24.25;;;13.40;;
72761;SDS011;60886;55.034;73.150;2023-05-10T08:59:03;22.60;;;12.60;;
72761;SDS011;60886;55.034;73.150;2023-05-10T09:02:05;21.50;;;12.02;;
72761;SDS011;60886;55.034;73.150;2023-05-10T09:05:07;22.88;;;13.32;;
72761;SDS011;60886;55.034;73.150;2023-05-10T09:08:09;20.07;;;13.17;;
72761;SDS011;60886;55.034;73.150;2023-05-10T09:11:12;25.60;;;13.50;;
72761;SDS011;60886;55.034;73.150;2023-05-10T09:14:14;21.83;;;12.52;;
72761;SDS011;60886;55.034;73.150;2023-05-10T09:17:16;25.07;;;13.33;;
72761;SDS011;60886;55.034;73.150;2023-05-10T09:20:17;23.02;;;12.95;;
72761;SDS011;60886;55.034;73.150;2023-05-10T09:23:19;22.63;;;13.07;;
72761;SDS011;60886;55.034;73.150;2023-05-10T09:26:23;20.50;;;12.40;;
72761;SDS011;60886;55.034;73.150;2023-05-10T09:29:25;23.70;;;13.83;;
72761;SDS011;60886;55.034;73.150;2023-05-10T09:32:47;22.87;;;13.63;;
72761;SDS011;60886;55.034;73.150;2023-05-10T09:35:48;26.35;;;14.40;;
72761;SDS011;60886;55.034;73.150;2023-05-10T09:38:56;23.80;;;13.10;;
72761;SDS011;60886;55.034;73.150;2023-05-10T09:41:59;22.47;;;14.03;;
72761;SDS011;60886;55.034;73.150;2023-05-10T09:45:03;22.02;;;14.05;;
72761;SDS011;60886;55.034;73.150;2023-05-10T09:48:08;23.20;;;13.87;;
72761;SDS011;60886;55.034;73.150;2023-05-10T09:51:19;20.77;;;13.20;;
72761;SDS011;60886;55.034;73.150;2023-05-10T09:54:21;21.42;;;12.27;;
72761;SDS011;60886;55.034;73.150;2023-05-10T09:57:24;20.90;;;11.48;;
72761;SDS011;60886;55.034;73.150;2023-05-10T10:00:27;20.87;;;10.80;;
72761;SDS011;60886;55.034;73.150;2023-05-10T10:03:29;20.42;;;11.13;;
72761;SDS011;60886;55.034;73.150;2023-05-10T10:06:35;20.48;;;10.55;;
72761;SDS011;60886;55.034;73.150;2023-05-10T10:09:40;20.10;;;10.73;;
72761;SDS011;60886;55.034;73.150;2023-05-10T10:12:41;20.13;;;10.80;;
72761;SDS011;60886;55.034;73.150;2023-05-10T10:15:43;17.45;;;10.82;;
72761;SDS011;60886;55.034;73.150;2023-05-10T10:18:45;19.73;;;10.77;;
72761;SDS011;60886;55.034;73.150;2023-05-10T10:21:50;20.45;;;11.05;;
72761;SDS011;60886;55.034;73.150;2023-05-10T10:24:51;20.50;;;10.48;;
72761;SDS011;60886;55.034;73.150;2023-05-10T10:34:32;18.42;;;10.32;;
72761;SDS011;60886;55.034;73.150;2023-05-10T10:37:43;16.00;;;9.57;;
72761;SDS011;60886;55.034;73.150;2023-05-10T10:40:47;15.57;;;8.77;;
72761;SDS011;60886;55.034;73.150;2023-05-10T10:43:49;18.60;;;8.57;;
72761;SDS011;60886;55.034;73.150;2023-05-10T10:47:28;14.43;;;8.47;;
72761;SDS011;60886;55.034;73.150;2023-05-10T10:50:42;47.03;;;10.23;;
72761;SDS011;60886;55.034;73.150;2023-05-10T10:53:45;16.60;;;8.97;;
72761;SDS011;60886;55.034;73.150;2023-05-10T11:00:27;20.95;;;8.70;;
72761;SDS011;60886;55.034;73.150;2023-05-10T11:03:34;16.92;;;8.73;;
72761;SDS011;60886;55.034;73.150;2023-05-10T11:06:35;15.80;;;8.70;;
72761;SDS011;60886;55.034;73.150;2023-05-10T11:09:40;19.02;;;8.50;;
72761;SDS011;60886;55.034;73.150;2023-05-10T11:16:11;14.63;;;8.10;;
72761;SDS011;60886;55.034;73.150;2023-05-10T11:19:22;16.77;;;8.13;;
72761;SDS011;60886;55.034;73.150;2023-05-10T11:22:28;18.57;;;7.97;;
72761;SDS011;60886;55.034;73.150;2023-05-10T11:25:30;14.68;;;7.32;;
72761;SDS011;60886;55.034;73.150;2023-05-10T11:28:31;17.03;;;7.77;;
72761;SDS011;60886;55.034;73.150;2023-05-10T11:31:33;16.40;;;7.50;;
72761;SDS011;60886;55.034;73.150;2023-05-10T11:34:34;25.10;;;10.77;;
72761;SDS011;60886;55.034;73.150;2023-05-10T11:37:36;17.38;;;8.18;;
72761;SDS011;60886;55.034;73.150;2023-05-10T11:40:42;15.03;;;8.17;;
72761;SDS011;60886;55.034;73.150;2023-05-10T11:43:46;15.20;;;7.95;;
72761;SDS011;60886;55.034;73.150;2023-05-10T11:46:50;15.25;;;7.68;;
72761;SDS011;60886;55.034;73.150;2023-05-10T11:49:52;16.13;;;6.82;;
72761;SDS011;60886;55.034;73.150;2023-05-10T11:52:54;14.63;;;7.90;;
72761;SDS011;60886;55.034;73.150;2023-05-10T11:56:08;16.10;;;7.63;;
72761;SDS011;60886;55.034;73.150;2023-05-10T11:59:10;14.88;;;6.72;;
72761;SDS011;60886;55.034;73.150;2023-05-10T12:02:15;15.00;;;7.10;;
72761;SDS011;60886;55.034;73.150;2023-05-10T12:05:17;14.50;;;6.88;;
72761;SDS011;60886;55.034;73.150;2023-05-10T12:08:22;14.98;;;7.45;;
72761;SDS011;60886;55.034;73.150;2023-05-10T12:11:26;18.25;;;7.38;;
72761;SDS011;60886;55.034;73.150;2023-05-10T12:14:28;14.07;;;6.73;;
72761;SDS011;60886;55.034;73.150;2023-05-10T12:17:33;12.25;;;6.50;;
72761;SDS011;60886;55.034;73.150;2023-05-10T12:20:38;13.40;;;6.07;;
72761;SDS011;60886;55.034;73.150;2023-05-10T12:23:40;13.27;;;6.10;;
72761;SDS011;60886;55.034;73.150;2023-05-10T12:26:50;14.70;;;7.54;;
72761;SDS011;60886;55.034;73.150;2023-05-10T12:29:51;15.80;;;7.07;;
72761;SDS011;60886;55.034;73.150;2023-05-10T12:32:53;11.50;;;5.77;;
72761;SDS011;60886;55.034;73.150;2023-05-10T12:36:00;13.23;;;5.82;;
72761;SDS011;60886;55.034;73.150;2023-05-10T12:39:02;12.77;;;6.28;;
72761;SDS011;60886;55.034;73.150;2023-05-10T12:42:04;11.07;;;5.82;;
72761;SDS011;60886;55.034;73.150;2023-05-10T12:45:05;13.30;;;6.30;;
72761;SDS011;60886;55.034;73.150;2023-05-10T12:48:08;61.93;;;21.53;;
72761;SDS011;60886;55.034;73.150;2023-05-10T12:51:09;48.90;;;17.40;;
72761;SDS011;60886;55.034;73.150;2023-05-10T12:54:13;35.00;;;14.73;;
72761;SDS011;60886;55.034;73.150;2023-05-10T12:57:14;34.58;;;15.02;;
72761;SDS011;60886;55.034;73.150;2023-05-10T13:00:16;24.10;;;11.75;;
72761;SDS011;60886;55.034;73.150;2023-05-10T13:03:18;22.00;;;11.23;;
72761;SDS011;60886;55.034;73.150;2023-05-10T13:06:20;18.27;;;8.20;;
72761;SDS011;60886;55.034;73.150;2023-05-10T13:09:21;14.77;;;8.27;;
72761;SDS011;60886;55.034;73.150;2023-05-10T13:12:23;15.57;;;7.60;;
72761;SDS011;60886;55.034;73.150;2023-05-10T13:15:24;19.20;;;7.80;;
72761;SDS011;60886;55.034;73.150;2023-05-10T13:18:26;21.60;;;9.83;;
72761;SDS011;60886;55.034;73.150;2023-05-10T13:21:28;19.83;;;9.98;;
72761;SDS011;60886;55.034;73.150;2023-05-10T13:24:30;25.60;;;11.27;;
72761;SDS011;60886;55.034;73.150;2023-05-10T13:27:32;20.05;;;10.13;;
72761;SDS011;60886;55.034;73.150;2023-05-10T13:30:33;24.85;;;10.50;;
72761;SDS011;60886;55.034;73.150;2023-05-10T13:33:34;24.83;;;10.03;;
72761;SDS011;60886;55.034;73.150;2023-05-10T13:36:36;23.88;;;9.65;;
72761;SDS011;60886;55.034;73.150;2023-05-10T13:39:37;23.57;;;8.87;;
72761;SDS011;60886;55.034;73.150;2023-05-10T13:42:39;18.67;;;9.03;;
72761;SDS011;60886;55.034;73.150;2023-05-10T13:45:40;50.70;;;22.85;;
72761;SDS011;60886;55.034;73.150;2023-05-10T13:48:41;28.85;;;13.02;;
72761;SDS011;60886;55.034;73.150;2023-05-10T13:51:50;36.02;;;14.67;;
72761;SDS011;60886;55.034;73.150;2023-05-10T13:54:52;30.00;;;14.40;;
72761;SDS011;60886;55.034;73.150;2023-05-10T13:57:55;38.37;;;14.97;;
72761;SDS011;60886;55.034;73.150;2023-05-10T14:00:56;42.03;;;14.85;;
72761;SDS011;60886;55.034;73.150;2023-05-10T14:03:59;37.83;;;14.30;;
72761;SDS011;60886;55.034;73.150;2023-05-10T14:07:00;43.50;;;14.20;;
72761;SDS011;60886;55.034;73.150;2023-05-10T14:10:02;48.93;;;14.80;;
72761;SDS011;60886;55.034;73.150;2023-05-10T14:13:04;34.05;;;15.00;;
72761;SDS011;60886;55.034;73.150;2023-05-10T14:16:06;44.47;;;15.10;;
72761;SDS011;60886;55.034;73.150;2023-05-10T14:19:11;36.10;;;15.05;;
72761;SDS011;60886;55.034;73.150;2023-05-10T14:22:17;27.98;;;13.25;;
72761;SDS011;60886;55.034;73.150;2023-05-10T14:25:19;33.05;;;13.50;;
72761;SDS011;60886;55.034;73.150;2023-05-10T14:28:21;27.47;;;13.53;;
72761;SDS011;60886;55.034;73.150;2023-05-10T14:31:24;48.78;;;15.00;;
72761;SDS011;60886;55.034;73.150;2023-05-10T14:34:26;44.17;;;15.53;;
72761;SDS011;60886;55.034;73.150;2023-05-10T14:37:30;49.63;;;15.70;;
72761;SDS011;60886;55.034;73.150;2023-05-10T14:40:32;54.03;;;17.03;;
72761;SDS011;60886;55.034;73.150;2023-05-10T14:43:35;38.65;;;15.00;;
72761;SDS011;60886;55.034;73.150;2023-05-10T14:46:37;32.10;;;14.03;;
72761;SDS011;60886;55.034;73.150;2023-05-10T14:49:39;12.80;;;5.55;;
72761;SDS011;60886;55.034;73.150;2023-05-10T14:52:42;10.82;;;4.53;;
72761;SDS011;60886;55.034;73.150;2023-05-10T14:55:43;10.97;;;3.80;;
72761;SDS011;60886;55.034;73.150;2023-05-10T14:58:45;9.50;;;3.90;;
72761;SDS011;60886;55.034;73.150;2023-05-10T15:01:50;13.35;;;5.30;;
72761;SDS011;60886;55.034;73.150;2023-05-10T15:04:51;15.20;;;6.40;;
72761;SDS011;60886;55.034;73.150;2023-05-10T15:07:53;12.73;;;5.60;;
72761;SDS011;60886;55.034;73.150;2023-05-10T15:10:54;11.80;;;5.03;;
72761;SDS011;60886;55.034;73.150;2023-05-10T15:13:56;13.57;;;5.67;;
72761;SDS011;60886;55.034;73.150;2023-05-10T15:16:58;15.32;;;5.88;;
72761;SDS011;60886;55.034;73.150;2023-05-10T15:20:00;12.00;;;5.00;;
72761;SDS011;60886;55.034;73.150;2023-05-10T15:23:04;16.00;;;7.20;;
72761;SDS011;60886;55.034;73.150;2023-05-10T15:26:06;15.52;;;8.20;;
72761;SDS011;60886;55.034;73.150;2023-05-10T15:29:08;18.53;;;8.97;;
72761;SDS011;60886;55.034;73.150;2023-05-10T15:32:11;18.83;;;9.50;;
72761;SDS011;60886;55.034;73.150;2023-05-10T15:35:12;23.65;;;8.70;;
72761;SDS011;60886;55.034;73.150;2023-05-10T15:38:14;11.70;;;5.10;;
72761;SDS011;60886;55.034;73.150;2023-05-10T15:41:16;15.68;;;5.80;;
72761;SDS011;60886;55.034;73.150;2023-05-10T15:44:18;14.40;;;6.30;;
72761;SDS011;60886;55.034;73.150;2023-05-10T15:47:19;20.27;;;6.68;;
72761;SDS011;60886;55.034;73.150;2023-05-10T15:50:20;15.03;;;6.77;;
72761;SDS011;60886;55.034;73.150;2023-05-10T15:53:22;16.60;;;7.28;;
72761;SDS011;60886;55.034;73.150;2023-05-10T15:56:24;27.07;;;11.67;;
72761;SDS011;60886;55.034;73.150;2023-05-10T15:59:26;21.97;;;10.80;;
72761;SDS011;60886;55.034;73.150;2023-05-10T16:02:27;26.65;;;12.00;;
72761;SDS011;60886;55.034;73.150;2023-05-10T16:05:30;27.55;;;10.55;;
72761;SDS011;60886;55.034;73.150;2023-05-10T16:08:33;22.10;;;9.50;;
72761;SDS011;60886;55.034;73.150;2023-05-10T16:11:35;18.97;;;9.13;;
72761;SDS011;60886;55.034;73.150;2023-05-10T16:14:37;17.67;;;8.25;;
72761;SDS011;60886;55.034;73.150;2023-05-10T16:17:38;20.93;;;8.13;;
72761;SDS011;60886;55.034;73.150;2023-05-10T16:20:39;19.70;;;8.90;;
72761;SDS011;60886;55.034;73.150;2023-05-10T16:23:41;21.27;;;8.35;;
72761;SDS011;60886;55.034;73.150;2023-05-10T16:26:50;19.97;;;8.72;;
72761;SDS011;60886;55.034;73.150;2023-05-10T16:29:51;10.47;;;5.47;;
72761;SDS011;60886;55.034;73.150;2023-05-10T16:32:52;14.85;;;7.03;;
72761;SDS011;60886;55.034;73.150;2023-05-10T16:35:54;15.65;;;8.20;;
72761;SDS011;60886;55.034;73.150;2023-05-10T16:38:56;23.70;;;8.83;;
72761;SDS011;60886;55.034;73.150;2023-05-10T16:41:58;13.15;;;6.00;;
72761;SDS011;60886;55.034;73.150;2023-05-10T16:44:59;11.67;;;5.33;;
72761;SDS011;60886;55.034;73.150;2023-05-10T16:48:07;26.85;;;5.30;;
72761;SDS011;60886;55.034;73.150;2023-05-10T16:51:09;17.75;;;4.78;;
72761;SDS011;60886;55.034;73.150;2023-05-10T16:54:11;12.73;;;5.40;;
72761;SDS011;60886;55.034;73.150;2023-05-10T16:57:12;12.30;;;4.80;;
72761;SDS011;60886;55.034;73.150;2023-05-10T17:00:14;12.30;;;5.93;;
72761;SDS011;60886;55.034;73.150;2023-05-10T17:03:16;10.63;;;5.13;;
72761;SDS011;60886;55.034;73.150;2023-05-10T17:06:17;11.10;;;5.28;;
72761;SDS011;60886;55.034;73.150;2023-05-10T17:09:19;11.15;;;5.38;;
72761;SDS011;60886;55.034;73.150;2023-05-10T17:12:20;12.50;;;5.30;;
72761;SDS011;60886;55.034;73.150;2023-05-10T17:15:22;13.50;;;5.30;;
72761;SDS011;60886;55.034;73.150;2023-05-10T17:18:23;11.67;;;5.30;;
72761;SDS011;60886;55.034;73.150;2023-05-10T17:21:26;11.30;;;5.50;;
72761;SDS011;60886;55.034;73.150;2023-05-10T17:24:27;10.53;;;5.30;;
72761;SDS011;60886;55.034;73.150;2023-05-10T17:27:29;11.55;;;5.60;;
72761;SDS011;60886;55.034;73.150;2023-05-10T17:30:31;10.47;;;5.17;;
72761;SDS011;60886;55.034;73.150;2023-05-10T17:33:32;11.82;;;5.63;;
72761;SDS011;60886;55.034;73.150;2023-05-10T17:36:33;12.43;;;6.23;;
72761;SDS011;60886;55.034;73.150;2023-05-10T17:39:35;11.23;;;5.55;;
72761;SDS011;60886;55.034;73.150;2023-05-10T17:42:37;12.20;;;5.55;;
72761;SDS011;60886;55.034;73.150;2023-05-10T17:45:38;12.23;;;5.80;;
72761;SDS011;60886;55.034;73.150;2023-05-10T17:48:39;14.15;;;5.95;;
72761;SDS011;60886;55.034;73.150;2023-05-10T17:51:50;26.77;;;6.21;;
72761;SDS011;60886;55.034;73.150;2023-05-10T17:54:51;16.65;;;5.78;;
72761;SDS011;60886;55.034;73.150;2023-05-10T17:57:53;10.35;;;5.25;;
72761;SDS011;60886;55.034;73.150;2023-05-10T18:00:58;11.53;;;5.57;;
72761;SDS011;60886;55.034;73.150;2023-05-10T18:03:59;10.82;;;5.57;;
72761;SDS011;60886;55.034;73.150;2023-05-10T18:07:00;12.17;;;5.57;;
72761;SDS011;60886;55.034;73.150;2023-05-10T18:10:02;10.70;;;5.40;;
72761;SDS011;60886;55.034;73.150;2023-05-10T18:13:04;12.50;;;5.40;;
72761;SDS011;60886;55.034;73.150;2023-05-10T18:16:06;10.02;;;5.13;;